createdAt,value
2019-05-10T00:01:09.989Z,87.88
2019-05-10T00:04:01.094Z,88.59
2019-05-10T00:06:52.026Z,87.31
2019-05-10T00:09:24.756Z,86.91
2019-05-10T00:11:59.826Z,87.33
2019-05-10T00:14:34.866Z,86.98
2019-05-10T00:17:09.925Z,86.51
2019-05-10T00:19:43.311Z,87.35
2019-05-10T00:22:16.799Z,87.64
2019-05-10T00:25:02.838Z,88.28
2019-05-10T00:27:25.414Z,87.89
2019-05-10T00:29:58.816Z,88.68
2019-05-10T00:32:32.228Z,88.16
2019-05-10T00:35:07.080Z,89.17
2019-05-10T00:37:40.481Z,88.59
2019-05-10T00:40:14.123Z,88.92
2019-05-10T00:42:47.545Z,88.99
2019-05-10T00:45:20.945Z,89.82
2019-05-10T00:47:54.411Z,88.19
2019-05-10T00:50:27.810Z,89.49
2019-05-10T00:53:01.220Z,88.28
2019-05-10T00:55:34.613Z,87.81
2019-05-10T00:58:08.018Z,88.42
2019-05-10T01:00:41.516Z,88.15
2019-05-10T01:03:14.914Z,88.15
2019-05-10T01:05:48.336Z,87.86
2019-05-10T01:08:21.755Z,88.28
2019-05-10T01:10:55.164Z,88.35
2019-05-10T01:13:28.563Z,87.51
2019-05-10T01:16:01.979Z,87.79
2019-05-10T01:18:35.420Z,87.71
2019-05-10T01:21:08.835Z,87.69
2019-05-10T01:23:42.261Z,87.73
2019-05-10T01:26:15.669Z,87.59
2019-05-10T01:28:49.088Z,88.38
2019-05-10T01:31:22.614Z,88.33
2019-05-10T01:33:56.026Z,87.80
2019-05-10T01:36:29.443Z,89.05
2019-05-10T01:39:03.037Z,88.90
2019-05-10T01:41:36.422Z,89.26
2019-05-10T01:44:09.845Z,88.50
2019-05-10T01:46:43.274Z,88.27
2019-05-10T01:49:16.676Z,88.85
2019-05-10T01:51:50.104Z,88.42
2019-05-10T01:54:23.602Z,88.92
2019-05-10T01:56:56.979Z,88.74
2019-05-10T01:59:30.403Z,89.39
2019-05-10T02:02:03.884Z,89.99
2019-05-10T02:04:37.381Z,90.85
2019-05-10T02:07:10.831Z,91.25
2019-05-10T02:09:44.210Z,91.89
2019-05-10T02:12:17.609Z,92.49
2019-05-10T02:14:51.015Z,92.78
2019-05-10T02:17:24.545Z,93.27
2019-05-10T02:19:57.964Z,93.61
2019-05-10T02:22:31.383Z,94.49
2019-05-10T02:25:05.960Z,95.17
2019-05-10T02:27:39.358Z,95.46
2019-05-10T02:30:12.899Z,95.56
2019-05-10T02:32:46.342Z,95.49
2019-05-10T02:35:20.184Z,95.45
2019-05-10T02:37:53.709Z,95.24
2019-05-10T02:40:27.073Z,95.10
2019-05-10T02:43:00.488Z,95.19
2019-05-10T02:45:33.922Z,95.39
2019-05-10T02:48:07.447Z,95.63
2019-05-10T02:50:40.867Z,95.26
2019-05-10T02:53:14.953Z,95.26
2019-05-10T02:55:49.314Z,94.63
2019-05-10T02:58:23.129Z,94.58
2019-05-10T03:00:59.573Z,94.59
2019-05-10T03:03:33.397Z,94.60
2019-05-10T03:06:06.812Z,95.04
2019-05-10T03:08:51.376Z,95.33
2019-05-10T03:11:27.853Z,95.32
2019-05-10T03:14:04.301Z,95.52
2019-05-10T03:16:39.570Z,95.84
2019-05-10T03:19:14.507Z,96.14
2019-05-10T03:21:53.512Z,96.28
2019-05-10T03:24:27.829Z,96.85
2019-05-10T03:27:01.565Z,97.28
2019-05-10T03:29:35.001Z,97.73
2019-05-10T03:32:08.565Z,98.05
2019-05-10T03:34:41.993Z,98.32
2019-05-10T03:37:15.657Z,97.93
2019-05-10T03:39:49.196Z,97.55
2019-05-10T03:42:22.659Z,97.06
2019-05-10T03:44:56.067Z,97.02
2019-05-10T03:47:29.534Z,96.77
2019-05-10T03:50:03.504Z,96.77
2019-05-10T03:52:36.987Z,97.07
2019-05-10T03:55:11.546Z,97.48
2019-05-10T03:57:44.957Z,97.63
2019-05-10T04:00:18.533Z,97.71
2019-05-10T04:02:52.082Z,97.67
2019-05-10T04:05:25.504Z,97.69
2019-05-10T04:07:58.922Z,97.54
2019-05-10T04:10:32.333Z,97.35
2019-05-10T04:13:05.760Z,97.22
2019-05-10T04:15:39.156Z,97.07
2019-05-10T04:18:12.590Z,96.82
2019-05-10T04:20:45.986Z,96.72
2019-05-10T04:23:19.388Z,96.40
2019-05-10T04:25:52.797Z,96.35
2019-05-10T04:28:26.193Z,95.67
2019-05-10T04:30:59.616Z,95.12
2019-05-10T04:33:33.008Z,94.92
2019-05-10T04:36:11.351Z,94.76
2019-05-10T04:38:41.628Z,95.21
2019-05-10T04:41:15.088Z,95.39
2019-05-10T04:43:48.502Z,95.64
2019-05-10T04:46:21.954Z,95.56
2019-05-10T04:48:55.369Z,95.73
2019-05-10T04:51:28.822Z,95.63
2019-05-10T04:54:02.239Z,95.48
2019-05-10T04:56:35.642Z,95.21
2019-05-10T04:59:09.036Z,95.13
2019-05-10T05:01:42.430Z,95.33
2019-05-10T05:04:15.851Z,95.75
2019-05-10T05:06:49.264Z,93.00
2019-05-10T05:09:22.688Z,85.75
2019-05-10T05:11:56.084Z,84.98
2019-05-10T05:14:29.503Z,84.98
2019-05-10T05:17:02.963Z,90.35
2019-05-10T05:19:36.407Z,91.64
2019-05-10T05:22:09.802Z,92.52
2019-05-10T05:24:43.207Z,92.93
2019-05-10T05:27:16.627Z,93.64
2019-05-10T05:29:50.046Z,93.33
2019-05-10T05:32:23.505Z,93.90
2019-05-10T05:34:56.915Z,94.55
2019-05-10T05:37:30.324Z,94.13
2019-05-10T05:40:05.196Z,93.79
2019-05-10T05:42:38.606Z,91.15
2019-05-10T05:45:12.340Z,90.76
2019-05-10T05:47:45.742Z,91.72
2019-05-10T05:50:19.284Z,92.67
2019-05-10T05:52:52.654Z,92.20
2019-05-10T05:55:30.733Z,92.53
2019-05-10T05:58:04.764Z,93.06
2019-05-10T06:00:44.070Z,93.11
2019-05-10T06:03:11.472Z,93.07
2019-05-10T06:05:44.875Z,92.35
2019-05-10T06:08:22.939Z,92.08
2019-05-10T06:10:57.579Z,91.08
2019-05-10T06:13:30.488Z,87.22
2019-05-10T06:16:06.238Z,87.20
2019-05-10T06:18:41.772Z,88.66
2019-05-10T06:21:18.064Z,81.24
2019-05-10T06:23:49.159Z,77.32
2019-05-10T06:26:28.350Z,73.82
2019-05-10T06:29:03.499Z,78.62
2019-05-10T06:31:32.844Z,82.68
2019-05-10T06:34:06.324Z,84.20
2019-05-10T06:36:39.878Z,85.79
2019-05-10T06:39:13.258Z,86.37
2019-05-10T06:41:49.894Z,81.52
2019-05-10T06:44:24.921Z,76.30
2019-05-10T06:47:02.197Z,72.62
2019-05-10T06:49:32.105Z,68.91
2019-05-10T06:52:05.540Z,68.91
2019-05-10T06:54:38.936Z,67.99
2019-05-10T06:57:17.647Z,67.44
2019-05-10T06:59:47.511Z,66.61
2019-05-10T07:02:26.830Z,67.55
2019-05-10T07:04:56.158Z,64.04
2019-05-10T07:07:43.326Z,62.72
2019-05-10T07:10:17.966Z,59.92
2019-05-10T07:12:42.061Z,61.50
2019-05-10T07:15:15.729Z,64.26
2019-05-10T07:17:49.161Z,69.24
2019-05-10T07:20:23.612Z,64.81
2019-05-10T07:23:00.027Z,62.60
2019-05-10T07:25:37.788Z,67.06
2019-05-10T07:28:09.504Z,66.38
2019-05-10T07:30:43.296Z,68.23
2019-05-10T07:33:16.702Z,67.93
2019-05-10T07:35:50.245Z,66.86
2019-05-10T07:38:31.022Z,65.96
2019-05-10T07:40:59.582Z,67.56
2019-05-10T07:43:33.004Z,68.92
2019-05-10T07:46:06.985Z,69.45
2019-05-10T07:48:46.981Z,68.97
2019-05-10T07:51:16.748Z,67.77
2019-05-10T07:53:50.345Z,67.99
2019-05-10T07:56:23.784Z,69.13
2019-05-10T07:59:00.471Z,67.37
2019-05-10T08:01:34.838Z,68.26
2019-05-10T08:04:08.996Z,68.42
2019-05-10T08:06:47.563Z,67.48
2019-05-10T08:09:19.206Z,67.15
2019-05-10T08:11:53.948Z,67.11
2019-05-10T08:14:29.026Z,66.11
2019-05-10T08:17:06.167Z,66.43
2019-05-10T08:19:39.037Z,66.43
2019-05-10T08:22:14.744Z,66.79
2019-05-10T08:24:52.880Z,67.05
2019-05-10T08:27:23.064Z,65.27
2019-05-10T08:30:17.795Z,65.60
2019-05-10T08:32:34.623Z,65.55
2019-05-10T08:35:16.266Z,65.18
2019-05-10T08:37:43.574Z,63.31
2019-05-10T08:40:19.846Z,63.17
2019-05-10T08:43:02.845Z,60.35
2019-05-10T08:45:27.352Z,60.35
2019-05-10T08:48:06.903Z,62.29
2019-05-10T08:50:49.714Z,62.29
2019-05-10T08:53:16.127Z,60.94
2019-05-10T08:55:46.186Z,59.01
2019-05-10T08:58:24.451Z,59.76
2019-05-10T09:01:15.511Z,59.76
2019-05-10T09:03:32.096Z,58.79
2019-05-10T09:06:11.815Z,59.03
2019-05-10T09:08:40.327Z,58.83
2019-05-10T09:11:16.242Z,55.52
2019-05-10T09:13:48.869Z,57.46
2019-05-10T09:16:23.736Z,59.09
2019-05-10T09:18:57.272Z,57.01
2019-05-10T09:21:32.192Z,57.41
2019-05-10T09:24:06.674Z,59.29
2019-05-10T09:26:41.823Z,59.14
2019-05-10T09:29:15.380Z,58.75
2019-05-10T09:31:50.603Z,59.60
2019-05-10T09:34:27.132Z,58.46
2019-05-10T09:36:59.037Z,57.21
2019-05-10T09:39:33.018Z,58.17
2019-05-10T09:42:09.963Z,58.51
2019-05-10T09:44:45.589Z,57.93
2019-05-10T09:47:16.889Z,56.78
2019-05-10T09:49:56.442Z,55.46
2019-05-10T09:52:25.412Z,53.87
2019-05-10T09:54:58.838Z,52.83
2019-05-10T09:57:32.442Z,54.75
2019-05-10T10:00:07.633Z,54.46
2019-05-10T10:02:47.737Z,52.23
2019-05-10T10:05:17.959Z,52.39
2019-05-10T10:07:51.405Z,52.69
2019-05-10T10:10:30.160Z,53.93
2019-05-10T10:13:08.505Z,54.52
2019-05-10T10:15:37.259Z,53.77
2019-05-10T10:18:12.471Z,53.99
2019-05-10T10:20:48.119Z,53.32
2019-05-10T10:23:24.597Z,52.67
2019-05-10T10:25:57.997Z,53.63
2019-05-10T10:28:31.551Z,53.81
2019-05-10T10:31:05.524Z,52.95
2019-05-10T10:33:42.768Z,52.15
2019-05-10T10:36:14.601Z,51.34
2019-05-10T10:38:49.674Z,50.88
2019-05-10T10:41:31.301Z,49.75
2019-05-10T10:43:58.545Z,51.16
2019-05-10T10:46:34.532Z,50.30
2019-05-10T10:49:07.036Z,50.29
2019-05-10T10:51:40.489Z,50.85
2019-05-10T10:54:13.886Z,50.95
2019-05-10T10:56:48.222Z,50.58
2019-05-10T10:59:21.755Z,49.64
2019-05-10T11:02:25.259Z,48.13
2019-05-10T11:04:30.317Z,46.92
2019-05-10T11:07:10.320Z,45.36
2019-05-10T11:09:41.016Z,43.08
2019-05-10T11:12:14.801Z,44.75
2019-05-10T11:14:49.210Z,45.21
2019-05-10T11:17:22.656Z,45.69
2019-05-10T11:19:56.099Z,45.76
2019-05-10T11:22:31.655Z,44.41
2019-05-10T11:25:09.737Z,43.92
2019-05-10T11:27:41.546Z,44.56
2019-05-10T11:30:15.885Z,42.98
2019-05-10T11:32:49.309Z,43.28
2019-05-10T11:35:28.435Z,43.66
2019-05-10T11:37:57.929Z,42.18
2019-05-10T11:40:34.883Z,43.06
2019-05-10T11:43:06.487Z,41.31
2019-05-10T11:45:43.629Z,42.74
2019-05-10T11:48:15.044Z,41.56
2019-05-10T11:50:51.089Z,41.08
2019-05-10T11:53:24.116Z,41.85
2019-05-10T11:55:57.591Z,42.08
2019-05-10T11:58:31.266Z,41.65
2019-05-10T12:01:14.850Z,41.70
2019-05-10T12:03:42.468Z,42.17
2019-05-10T12:06:15.230Z,42.89
2019-05-10T12:08:52.296Z,44.85
2019-05-10T12:11:32.980Z,44.98
2019-05-10T12:14:02.131Z,44.31
2019-05-10T12:16:34.113Z,41.82
2019-05-10T12:19:19.597Z,43.18
2019-05-10T12:21:42.672Z,43.09
2019-05-10T12:24:38.986Z,44.62
2019-05-10T12:27:17.263Z,43.67
2019-05-10T12:29:26.361Z,37.49
2019-05-10T12:31:59.769Z,38.20
2019-05-10T12:34:33.195Z,36.67
2019-05-10T12:37:08.385Z,37.79
2019-05-10T12:39:41.917Z,38.03
2019-05-10T12:42:15.312Z,38.32
2019-05-10T12:44:48.737Z,38.13
2019-05-10T12:47:22.132Z,38.13
2019-05-10T12:50:02.155Z,38.61
2019-05-10T12:52:32.069Z,39.01
2019-05-10T12:55:07.633Z,39.22
2019-05-10T12:57:43.330Z,38.40
2019-05-10T13:00:16.827Z,39.97
2019-05-10T13:02:51.884Z,38.25
2019-05-10T13:05:32.320Z,39.02
2019-05-10T13:08:00.533Z,39.50
2019-05-10T13:10:37.232Z,38.08
2019-05-10T13:13:09.361Z,38.16
2019-05-10T13:15:42.770Z,39.46
2019-05-10T13:18:16.213Z,39.92
2019-05-10T13:20:49.607Z,40.46
2019-05-10T13:23:23.007Z,40.64
2019-05-10T13:25:56.448Z,41.16
2019-05-10T13:28:29.836Z,40.60
2019-05-10T13:31:05.669Z,40.14
2019-05-10T13:33:41.870Z,39.53
2019-05-10T13:36:13.632Z,39.96
2019-05-10T13:38:49.153Z,40.12
2019-05-10T13:41:23.934Z,39.57
2019-05-10T13:43:58.767Z,41.18
2019-05-10T13:46:32.470Z,51.15
2019-05-10T13:49:05.887Z,53.50
2019-05-10T13:51:39.345Z,51.80
2019-05-10T13:54:12.752Z,52.42
2019-05-10T13:56:52.373Z,52.10
2019-05-10T13:59:21.310Z,51.54
2019-05-10T14:01:54.748Z,49.98
2019-05-10T14:04:28.162Z,51.09
2019-05-10T14:07:01.590Z,51.04
2019-05-10T14:09:35.072Z,50.67
2019-05-10T14:12:08.500Z,40.34
2019-05-10T14:14:41.958Z,39.54
2019-05-10T14:17:15.405Z,39.33
2019-05-10T14:19:48.810Z,39.88
2019-05-10T14:22:22.227Z,40.66
2019-05-10T14:24:58.868Z,40.86
2019-05-10T14:27:35.926Z,40.96
2019-05-10T14:30:13.758Z,41.50
2019-05-10T14:32:44.254Z,41.38
2019-05-10T14:35:22.658Z,42.06
2019-05-10T14:37:52.828Z,42.31
2019-05-10T14:40:30.398Z,42.19
2019-05-10T14:43:01.494Z,41.92
2019-05-10T14:45:34.895Z,41.65
2019-05-10T14:48:08.318Z,41.95
2019-05-10T14:50:46.259Z,42.88
2019-05-10T14:53:20.039Z,48.68
2019-05-10T14:55:52.517Z,50.26
2019-05-10T14:58:25.939Z,50.04
2019-05-10T15:00:59.375Z,48.79
2019-05-10T15:03:35.332Z,47.26
2019-05-10T15:06:07.970Z,42.29
2019-05-10T15:08:46.175Z,40.83
2019-05-10T15:11:19.574Z,40.56
2019-05-10T15:13:55.618Z,41.85
2019-05-10T15:16:30.838Z,41.70
2019-05-10T15:19:04.246Z,42.58
2019-05-10T15:21:37.673Z,42.77
2019-05-10T15:24:11.494Z,43.29
2019-05-10T15:26:46.145Z,48.44
2019-05-10T15:29:22.592Z,49.45
2019-05-10T15:31:54.924Z,51.13
2019-05-10T15:34:28.448Z,52.87
2019-05-10T15:37:09.297Z,53.24
2019-05-10T15:39:38.113Z,53.33
2019-05-10T15:42:11.590Z,53.63
2019-05-10T15:44:44.996Z,54.85
2019-05-10T15:47:20.567Z,56.32
2019-05-10T15:49:54.568Z,58.60
2019-05-10T15:52:29.345Z,59.83
2019-05-10T15:55:02.909Z,59.72
2019-05-10T15:57:36.305Z,59.95
2019-05-10T16:00:10.337Z,54.59
2019-05-10T16:02:43.755Z,57.68
2019-05-10T16:05:25.855Z,57.35
2019-05-10T16:07:53.226Z,58.27
2019-05-10T16:10:28.265Z,57.76
2019-05-10T16:13:01.813Z,58.49
2019-05-10T16:15:35.232Z,58.57
2019-05-10T16:18:08.745Z,58.56
2019-05-10T16:20:42.371Z,58.63
2019-05-10T16:23:16.054Z,59.69
2019-05-10T16:25:49.481Z,58.00
2019-05-10T16:28:23.072Z,56.53
2019-05-10T16:30:56.493Z,55.39
2019-05-10T16:33:30.040Z,55.35
2019-05-10T16:36:03.508Z,54.71
2019-05-10T16:38:36.875Z,54.93
2019-05-10T16:41:10.335Z,54.46
2019-05-10T16:43:43.760Z,54.45
2019-05-10T16:46:17.195Z,54.13
2019-05-10T16:48:50.615Z,54.34
2019-05-10T16:51:24.013Z,54.13
2019-05-10T16:53:57.414Z,54.56
2019-05-10T16:56:31.188Z,54.46
2019-05-10T16:59:04.677Z,52.63
2019-05-10T17:01:38.152Z,50.67
2019-05-10T17:04:12.176Z,51.09
2019-05-10T17:06:45.618Z,49.99
2019-05-10T17:09:19.853Z,51.03
2019-05-10T17:11:53.287Z,50.55
2019-05-10T17:14:26.763Z,50.21
2019-05-10T17:17:00.242Z,50.60
2019-05-10T17:19:35.942Z,50.70
2019-05-10T17:22:08.795Z,49.16
2019-05-10T17:24:42.242Z,46.32
2019-05-10T17:27:15.660Z,48.11
2019-05-10T17:29:49.738Z,48.01
2019-05-10T17:32:26.569Z,47.14
2019-05-10T17:35:04.697Z,46.82
2019-05-10T17:37:35.688Z,47.35
2019-05-10T17:40:10.591Z,47.66
2019-05-10T17:42:45.006Z,47.60
2019-05-10T17:45:18.962Z,48.63
2019-05-10T17:47:52.485Z,49.21
2019-05-10T17:50:25.918Z,49.36
2019-05-10T17:52:59.380Z,50.67
2019-05-10T17:55:32.817Z,52.23
2019-05-10T17:58:06.690Z,54.75
2019-05-10T18:00:40.210Z,55.57
2019-05-10T18:03:13.662Z,56.60
2019-05-10T18:05:52.818Z,56.60
2019-05-10T18:08:22.185Z,57.04
2019-05-10T18:10:57.500Z,56.97
2019-05-10T18:13:35.599Z,55.52
2019-05-10T18:16:09.485Z,55.15
2019-05-10T18:18:46.328Z,54.21
2019-05-10T18:21:22.245Z,54.57
2019-05-10T18:23:52.614Z,54.57
2019-05-10T18:26:26.600Z,55.32
2019-05-10T18:29:00.014Z,55.56
2019-05-10T18:31:33.532Z,56.20
2019-05-10T18:34:06.950Z,57.93
2019-05-10T18:36:55.424Z,57.93
2019-05-10T18:39:17.722Z,57.95
2019-05-10T18:41:50.690Z,58.48
2019-05-10T18:44:24.137Z,59.07
2019-05-10T18:46:57.567Z,58.94
2019-05-10T18:49:31.032Z,59.68
2019-05-10T18:52:06.577Z,59.19
2019-05-10T18:54:39.597Z,60.45
2019-05-10T18:57:18.786Z,60.92
2019-05-10T18:59:48.226Z,60.92
2019-05-10T19:02:21.714Z,61.88
2019-05-10T19:04:55.118Z,60.99
2019-05-10T19:07:28.627Z,62.25
2019-05-10T19:10:02.035Z,65.01
2019-05-10T19:12:36.163Z,66.47
2019-05-10T19:15:15.410Z,67.59
2019-05-10T19:17:47.025Z,67.44
2019-05-10T19:20:20.876Z,67.87
2019-05-10T19:22:54.372Z,67.73
2019-05-10T19:25:27.766Z,67.55
2019-05-10T19:28:01.208Z,67.22
2019-05-10T19:30:34.695Z,65.86
2019-05-10T19:33:08.141Z,66.44
2019-05-10T19:35:41.579Z,66.18
2019-05-10T19:38:14.977Z,66.91
2019-05-10T19:40:48.436Z,67.47
2019-05-10T19:43:23.825Z,68.67
2019-05-10T19:45:58.073Z,69.14
2019-05-10T19:48:35.253Z,69.53
2019-05-10T19:51:09.727Z,69.42
2019-05-10T19:53:44.007Z,70.03
2019-05-10T19:56:17.583Z,69.80
2019-05-10T19:58:50.973Z,69.45
2019-05-10T20:01:24.452Z,69.89
2019-05-10T20:03:57.836Z,70.28
2019-05-10T20:06:31.339Z,70.74
2019-05-10T20:09:06.660Z,71.33
2019-05-10T20:11:40.070Z,71.83
2019-05-10T20:14:13.643Z,72.57
2019-05-10T20:16:52.925Z,72.92
2019-05-10T20:19:22.217Z,72.98
2019-05-10T20:21:55.742Z,73.07
2019-05-10T20:24:29.200Z,73.08
2019-05-10T20:27:02.668Z,72.62
2019-05-10T20:29:36.098Z,73.45
2019-05-10T20:32:09.551Z,73.48
2019-05-10T20:34:42.956Z,73.44
2019-05-10T20:37:16.397Z,73.59
2019-05-10T20:39:49.801Z,73.44
2019-05-10T20:42:23.234Z,73.21
2019-05-10T20:45:06.599Z,72.94
2019-05-10T20:47:31.914Z,72.92
2019-05-10T20:50:06.453Z,73.48
2019-05-10T20:52:39.890Z,72.92
2019-05-10T20:55:13.643Z,73.07
2019-05-10T20:57:47.061Z,73.09
2019-05-10T21:00:23.924Z,73.11
2019-05-10T21:02:55.621Z,72.87
2019-05-10T21:05:29.037Z,72.87
2019-05-10T21:08:16.131Z,73.29
2019-05-10T21:10:37.582Z,73.04
2019-05-10T21:13:11.001Z,72.86
2019-05-10T21:15:44.477Z,73.27
2019-05-10T21:18:17.907Z,72.61
2019-05-10T21:20:51.324Z,73.03
2019-05-10T21:23:24.754Z,73.56
2019-05-10T21:25:58.147Z,74.08
2019-05-10T21:28:31.615Z,74.44
2019-05-10T21:31:05.048Z,75.11
2019-05-10T21:33:38.526Z,76.11
2019-05-10T21:36:12.039Z,77.88
2019-05-10T21:38:45.452Z,77.88
2019-05-10T21:41:18.847Z,77.87
2019-05-10T21:43:52.270Z,77.88
2019-05-10T21:46:25.698Z,78.51
2019-05-10T21:48:59.312Z,78.57
2019-05-10T21:51:32.712Z,79.31
2019-05-10T21:54:06.136Z,79.20
2019-05-10T21:56:39.613Z,79.66
2019-05-10T21:59:13.060Z,79.99
2019-05-10T22:01:46.524Z,80.98
2019-05-10T22:04:19.958Z,80.89
2019-05-10T22:06:53.353Z,82.91
2019-05-10T22:09:26.924Z,80.85
2019-05-10T22:12:00.395Z,82.49
2019-05-10T22:14:33.786Z,81.91
2019-05-10T22:17:07.196Z,82.95
2019-05-10T22:19:40.651Z,83.21
2019-05-10T22:22:14.223Z,82.43
2019-05-10T22:24:47.661Z,82.21
2019-05-10T22:27:21.076Z,83.35
2019-05-10T22:29:54.496Z,85.23
2019-05-10T22:32:27.913Z,86.04
2019-05-10T22:35:01.422Z,86.51
2019-05-10T22:37:34.830Z,86.96
2019-05-10T22:40:08.320Z,85.12
2019-05-10T22:42:41.743Z,84.97
2019-05-10T22:45:15.308Z,85.55
2019-05-10T22:47:48.712Z,86.77
2019-05-10T22:50:22.126Z,86.70
2019-05-10T22:52:55.521Z,86.37
2019-05-10T22:55:28.984Z,86.70
2019-05-10T22:58:02.409Z,87.35
2019-05-10T23:00:36.120Z,87.58
2019-05-10T23:03:09.502Z,87.97
2019-05-10T23:05:42.922Z,88.53
2019-05-10T23:08:16.345Z,88.68
2019-05-10T23:10:49.739Z,89.17
2019-05-10T23:13:23.243Z,88.51
2019-05-10T23:15:56.661Z,88.50
2019-05-10T23:18:30.087Z,88.79
2019-05-10T23:21:03.489Z,89.93
2019-05-10T23:23:36.924Z,89.18
2019-05-10T23:26:10.311Z,90.20
2019-05-10T23:28:43.732Z,90.14
2019-05-10T23:31:17.133Z,89.26
2019-05-10T23:33:50.555Z,89.68
2019-05-10T23:36:23.964Z,90.77
2019-05-10T23:38:57.399Z,90.78
2019-05-10T23:41:30.796Z,91.04
2019-05-10T23:44:04.280Z,91.87
2019-05-10T23:46:37.694Z,91.63
2019-05-10T23:49:11.116Z,91.55
2019-05-10T23:51:44.554Z,91.71
2019-05-10T23:54:17.968Z,92.43
2019-05-10T23:56:51.376Z,92.37
2019-05-10T23:59:24.802Z,93.30
